PWSweather.com
Personal Weather Stations
Station Observations
PRATO
PratoIT 59100

PratoIT 59100

Lat: 43.8956799, Lon: 11.0845155

Elevation: 164

Station Type: Davis Vantage Vue

http://www.meteoprato.it

High Low Average
Temperature 54.4°F12.4°C 48.1°F8.9°C 50.5°F10.3°C
Dew Point 48.4°F9.1°C 42.9°F6.1°C 46.2°F7.9°C
Winds 12.2 mph 19.6 kmh Calm Calm 5.0 mph SW8.0 kmh SW
Wind Gusts 27.0 mph43.5 kmh 2.0 mph3.2 kmh 11.0 mph17.7 kmh
Humidity 95% 66% 86%
Pressure 29.98 in1015.2 mb 29.64 in1003.7 mb -
Precipitation 0.46 in11.7 mm - -
Hour Temp Dew Point Humidity Winds Wind Gusts Pressure Precip Precip Rate Daily Precip Total
12:00 AM 49.3°F9.6°C 47.9°F8.8°C 95% 2.0 mph WSW3.2 kmh WSW 4.0 mph6.4 kmh 30.00 in1015.9 mb 0.02 in0.5 mm 0.00 in0.0 mm 0.02 in0.5 mm
12:05 AM 49.3°F9.6°C 47.9°F8.8°C 95% 2.0 mph WSW3.2 kmh WSW 4.0 mph6.4 kmh 30.00 in1015.9 mb 0.02 in0.5 mm 0.00 in0.0 mm 0.02 in0.5 mm
12:10 AM 49.3°F9.6°C 47.9°F8.8°C 95% 2.0 mph SW3.2 kmh SW 4.0 mph6.4 kmh 30.00 in1015.9 mb 0.03 in0.8 mm 0.12 in3.0 mm 0.01 in0.3 mm
12:15 AM 49.3°F9.6°C 47.9°F8.8°C 95% 2.0 mph SW3.2 kmh SW 6.0 mph9.7 kmh 30.00 in1015.9 mb 0.03 in0.8 mm 0.00 in0.0 mm 0.01 in0.3 mm
12:20 AM 49.2°F9.6°C 47.8°F8.8°C 95% 2.0 mph SW3.2 kmh SW 6.0 mph9.7 kmh 30.00 in1015.9 mb 0.04 in1.0 mm 0.12 in3.0 mm 0.02 in0.5 mm
12:25 AM 49.2°F9.6°C 47.8°F8.8°C 95% 2.0 mph SW3.2 kmh SW 5.0 mph8.0 kmh 30.00 in1015.9 mb 0.03 in0.8 mm 0.00 in0.0 mm 0.02 in0.5 mm
12:30 AM 49.2°F9.6°C 47.8°F8.8°C 95% 2.5 mph SW4.0 kmh SW 5.0 mph8.0 kmh 30.00 in1015.9 mb 0.03 in0.8 mm 0.00 in0.0 mm 0.02 in0.5 mm
12:35 AM 49.2°F9.6°C 47.8°F8.8°C 95% 2.9 mph SW4.7 kmh SW 5.0 mph8.0 kmh 30.00 in1015.9 mb 0.03 in0.8 mm 0.00 in0.0 mm 0.02 in0.5 mm
12:40 AM 49.3°F9.6°C 47.9°F8.8°C 95% 2.4 mph SW3.9 kmh SW 4.0 mph6.4 kmh 29.99 in1015.6 mb 0.03 in0.8 mm 0.00 in0.0 mm 0.02 in0.5 mm
12:45 AM 49.2°F9.6°C 47.8°F8.8°C 95% 2.0 mph SW3.2 kmh SW 5.0 mph8.0 kmh 29.98 in1015.2 mb 0.03 in0.8 mm 0.00 in0.0 mm 0.02 in0.5 mm
12:50 AM 49.2°F9.6°C 47.8°F8.8°C 95% 2.1 mph SW3.4 kmh SW 5.0 mph8.0 kmh 29.98 in1015.2 mb 0.03 in0.8 mm 0.00 in0.0 mm 0.02 in0.5 mm
12:55 AM 49.2°F9.6°C 47.8°F8.8°C 95% 2.1 mph WSW3.4 kmh WSW 5.0 mph8.0 kmh 29.98 in1015.2 mb 0.04 in1.0 mm 0.12 in3.0 mm 0.03 in0.8 mm
01:00 AM 49.2°F9.6°C 47.8°F8.8°C 95% 2.0 mph SW3.2 kmh SW 5.0 mph8.0 kmh 29.98 in1015.2 mb 0.03 in0.8 mm 0.00 in0.0 mm 0.03 in0.8 mm
01:05 AM 49.2°F9.6°C 47.8°F8.8°C 95% 2.0 mph SW3.2 kmh SW 5.0 mph8.0 kmh 29.98 in1015.2 mb 0.04 in1.0 mm 0.12 in3.0 mm 0.04 in1.0 mm
01:10 AM 49.1°F9.5°C 47.7°F8.7°C 95% 1.8 mph WSW2.9 kmh WSW 3.0 mph4.8 kmh 29.98 in1015.2 mb 0.03 in0.8 mm 0.00 in0.0 mm 0.04 in1.0 mm
01:15 AM 49.2°F9.6°C 47.8°F8.8°C 95% 1.8 mph WSW2.9 kmh WSW 4.0 mph6.4 kmh 29.98 in1015.2 mb 0.03 in0.8 mm 0.00 in0.0 mm 0.04 in1.0 mm
01:20 AM 49.2°F9.6°C 47.8°F8.8°C 95% 2.0 mph WSW3.2 kmh WSW 4.0 mph6.4 kmh 29.98 in1015.2 mb 0.05 in1.3 mm 0.24 in6.1 mm 0.06 in1.5 mm
01:25 AM 49.1°F9.5°C 47.7°F8.7°C 95% 2.0 mph SW3.2 kmh SW 4.0 mph6.4 kmh 29.98 in1015.2 mb 0.06 in1.5 mm 0.12 in3.0 mm 0.07 in1.8 mm
01:30 AM 49.1°F9.5°C 47.7°F8.7°C 95% 2.0 mph SW3.2 kmh SW 4.0 mph6.4 kmh 29.96 in1014.6 mb 0.06 in1.5 mm 0.00 in0.0 mm 0.07 in1.8 mm
01:35 AM 49.1°F9.5°C 47.7°F8.7°C 95% 2.0 mph SW3.2 kmh SW 6.0 mph9.7 kmh 29.96 in1014.6 mb 0.05 in1.3 mm 0.00 in0.0 mm 0.07 in1.8 mm
01:40 AM 49.1°F9.5°C 47.7°F8.7°C 95% 2.0 mph SW3.2 kmh SW 6.0 mph9.7 kmh 29.96 in1014.6 mb 0.06 in1.5 mm 0.12 in3.0 mm 0.08 in2.0 mm
01:45 AM 49.1°F9.5°C 47.7°F8.7°C 95% 2.0 mph SW3.2 kmh SW 7.0 mph11.3 kmh 29.95 in1014.2 mb 0.06 in1.5 mm 0.00 in0.0 mm 0.08 in2.0 mm
01:50 AM 49.1°F9.5°C 47.7°F8.7°C 95% 2.1 mph SW3.4 kmh SW 7.0 mph11.3 kmh 29.96 in1014.6 mb 0.07 in1.8 mm 0.12 in3.0 mm 0.09 in2.3 mm
01:55 AM 49.1°F9.5°C 47.7°F8.7°C 95% 2.6 mph SSW4.2 kmh SSW 8.0 mph12.9 kmh 29.96 in1014.6 mb 0.08 in2.0 mm 0.12 in3.0 mm 0.11 in2.8 mm
02:00 AM 49.1°F9.5°C 47.7°F8.7°C 95% 3.0 mph SSW4.8 kmh SSW 8.0 mph12.9 kmh 29.95 in1014.2 mb 0.09 in2.3 mm 0.01 in0.3 mm 0.12 in3.0 mm
02:05 AM 49.1°F9.5°C 47.7°F8.7°C 95% 3.0 mph SW4.8 kmh SW 6.0 mph9.7 kmh 29.96 in1014.6 mb 0.09 in2.3 mm 0.00 in0.0 mm 0.13 in3.3 mm
02:10 AM 49.1°F9.5°C 47.7°F8.7°C 95% 2.5 mph SW4.0 kmh SW 6.0 mph9.7 kmh 29.96 in1014.6 mb 0.11 in2.8 mm 0.24 in6.1 mm 0.15 in3.8 mm
02:15 AM 49.1°F9.5°C 47.7°F8.7°C 95% 2.0 mph SSW3.2 kmh SSW 6.0 mph9.7 kmh 29.95 in1014.2 mb 0.11 in2.8 mm 0.00 in0.0 mm 0.16 in4.1 mm
02:20 AM 49.1°F9.5°C 47.7°F8.7°C 95% 2.0 mph SW3.2 kmh SW 6.0 mph9.7 kmh 29.95 in1014.2 mb 0.09 in2.3 mm 0.00 in0.0 mm 0.16 in4.1 mm
02:25 AM 49.0°F9.4°C 47.6°F8.7°C 95% 2.0 mph SW3.2 kmh SW 4.0 mph6.4 kmh 29.95 in1014.2 mb 0.09 in2.3 mm 0.00 in0.0 mm 0.17 in4.3 mm
02:30 AM 49.0°F9.4°C 47.6°F8.7°C 95% 2.0 mph SW3.2 kmh SW 5.0 mph8.0 kmh 29.95 in1014.2 mb 0.09 in2.3 mm 0.00 in0.0 mm 0.17 in4.3 mm
02:35 AM 49.0°F9.4°C 47.6°F8.7°C 95% 2.4 mph SW3.9 kmh SW 6.0 mph9.7 kmh 29.95 in1014.2 mb 0.10 in2.5 mm 0.12 in3.0 mm 0.17 in4.3 mm
02:40 AM 48.9°F9.4°C 47.5°F8.6°C 95% 2.9 mph SW4.7 kmh SW 7.0 mph11.3 kmh 29.94 in1013.9 mb 0.09 in2.3 mm 0.00 in0.0 mm 0.17 in4.3 mm
02:45 AM 48.9°F9.4°C 47.5°F8.6°C 95% 3.0 mph SW4.8 kmh SW 7.0 mph11.3 kmh 29.94 in1013.9 mb 0.09 in2.3 mm 0.00 in0.0 mm 0.17 in4.3 mm
02:50 AM 48.8°F9.3°C 47.4°F8.6°C 95% 3.0 mph SW4.8 kmh SW 6.0 mph9.7 kmh 29.93 in1013.5 mb 0.08 in2.0 mm 0.00 in0.0 mm 0.18 in4.6 mm
02:55 AM 48.8°F9.3°C 47.4°F8.6°C 95% 2.8 mph SW4.5 kmh SW 6.0 mph9.7 kmh 29.93 in1013.5 mb 0.07 in1.8 mm 0.00 in0.0 mm 0.18 in4.6 mm
03:00 AM 48.8°F9.3°C 47.4°F8.6°C 95% 2.3 mph SW3.7 kmh SW 6.0 mph9.7 kmh 29.93 in1013.5 mb 0.06 in1.5 mm 0.00 in0.0 mm 0.18 in4.6 mm
03:05 AM 48.8°F9.3°C 47.4°F8.6°C 95% 2.0 mph SW3.2 kmh SW 6.0 mph9.7 kmh 29.93 in1013.5 mb 0.05 in1.3 mm 0.00 in0.0 mm 0.18 in4.6 mm
03:10 AM 48.8°F9.3°C 47.4°F8.6°C 95% 2.0 mph SW3.2 kmh SW 5.0 mph8.0 kmh 29.93 in1013.5 mb 0.03 in0.8 mm 0.00 in0.0 mm 0.18 in4.6 mm
03:15 AM 48.8°F9.3°C 47.4°F8.6°C 95% 2.0 mph SW3.2 kmh SW 7.0 mph11.3 kmh 29.93 in1013.5 mb 0.02 in0.5 mm 0.00 in0.0 mm 0.18 in4.6 mm
03:20 AM 48.8°F9.3°C 47.4°F8.6°C 95% 2.4 mph SW3.9 kmh SW 8.0 mph12.9 kmh 29.92 in1013.2 mb 0.02 in0.5 mm 0.00 in0.0 mm 0.18 in4.6 mm
03:25 AM 48.8°F9.3°C 47.4°F8.6°C 95% 2.8 mph SW4.5 kmh SW 8.0 mph12.9 kmh 29.92 in1013.2 mb 0.02 in0.5 mm 0.00 in0.0 mm 0.18 in4.6 mm
03:30 AM 48.7°F9.3°C 47.3°F8.5°C 95% 2.4 mph SW3.9 kmh SW 6.0 mph9.7 kmh 29.91 in1012.9 mb 0.02 in0.5 mm 0.00 in0.0 mm 0.18 in4.6 mm
03:35 AM 48.7°F9.3°C 47.3°F8.5°C 95% 1.7 mph SW2.7 kmh SW 4.0 mph6.4 kmh 29.92 in1013.2 mb 0.01 in0.3 mm 0.00 in0.0 mm 0.18 in4.6 mm
03:40 AM 48.6°F9.2°C 47.2°F8.4°C 95% 1.3 mph SW2.1 kmh SW 5.0 mph8.0 kmh 29.92 in1013.2 mb 0.01 in0.3 mm 0.00 in0.0 mm 0.18 in4.6 mm
03:45 AM 48.6°F9.2°C 47.2°F8.4°C 95% 1.6 mph SW2.6 kmh SW 5.0 mph8.0 kmh 29.91 in1012.9 mb 0.01 in0.3 mm 0.00 in0.0 mm 0.18 in4.6 mm
03:50 AM 48.5°F9.2°C 47.1°F8.4°C 95% 2.0 mph SW3.2 kmh SW 7.0 mph11.3 kmh 29.91 in1012.9 mb 0.00 in0.0 mm 0.00 in0.0 mm 0.18 in4.6 mm
03:55 AM 48.5°F9.2°C 47.1°F8.4°C 95% 2.1 mph SW3.4 kmh SW 7.0 mph11.3 kmh 29.90 in1012.5 mb 0.00 in0.0 mm 0.00 in0.0 mm 0.18 in4.6 mm
04:00 AM 48.5°F9.2°C 47.1°F8.4°C 95% 2.6 mph SSW4.2 kmh SSW 7.0 mph11.3 kmh 29.90 in1012.5 mb 0.00 in0.0 mm 0.00 in0.0 mm 0.18 in4.6 mm
04:05 AM 48.4°F9.1°C 47.0°F8.3°C 95% 3.4 mph SSW5.5 kmh SSW 8.0 mph12.9 kmh 29.90 in1012.5 mb 0.00 in0.0 mm 0.00 in0.0 mm 0.18 in4.6 mm
04:10 AM 48.4°F9.1°C 47.0°F8.3°C 95% 3.9 mph SSW6.3 kmh SSW 8.0 mph12.9 kmh 29.89 in1012.2 mb 0.00 in0.0 mm 0.00 in0.0 mm 0.18 in4.6 mm
04:15 AM 48.4°F9.1°C 47.0°F8.3°C 95% 4.0 mph SSW6.4 kmh SSW 9.0 mph14.5 kmh 29.89 in1012.2 mb 0.00 in0.0 mm 0.00 in0.0 mm 0.18 in4.6 mm
04:20 AM 48.5°F9.2°C 47.1°F8.4°C 95% 4.0 mph SSW6.4 kmh SSW 9.0 mph14.5 kmh 29.89 in1012.2 mb 0.00 in0.0 mm 0.00 in0.0 mm 0.18 in4.6 mm
04:25 AM 48.5°F9.2°C 47.1°F8.4°C 95% 4.0 mph SW6.4 kmh SW 7.0 mph11.3 kmh 29.89 in1012.2 mb 0.01 in0.3 mm 0.12 in3.0 mm 0.19 in4.8 mm
04:30 AM 48.6°F9.2°C 47.2°F8.4°C 95% 4.0 mph SW6.4 kmh SW 9.0 mph14.5 kmh 29.89 in1012.2 mb 0.02 in0.5 mm 0.12 in3.0 mm 0.20 in5.1 mm
04:35 AM 48.7°F9.3°C 47.3°F8.5°C 95% 4.2 mph SW6.8 kmh SW 10.0 mph16.1 kmh 29.89 in1012.2 mb 0.02 in0.5 mm 0.00 in0.0 mm 0.20 in5.1 mm
04:40 AM 48.8°F9.3°C 47.4°F8.6°C 95% 5.0 mph SW8.0 kmh SW 11.0 mph17.7 kmh 29.88 in1011.9 mb 0.02 in0.5 mm 0.00 in0.0 mm 0.20 in5.1 mm
04:45 AM 49.0°F9.4°C 47.3°F8.5°C 94% 5.8 mph SW9.3 kmh SW 12.0 mph19.3 kmh 29.88 in1011.9 mb 0.02 in0.5 mm 0.00 in0.0 mm 0.20 in5.1 mm
04:50 AM 49.2°F9.6°C 47.5°F8.6°C 94% 6.0 mph SW9.7 kmh SW 12.0 mph19.3 kmh 29.88 in1011.9 mb 0.02 in0.5 mm 0.00 in0.0 mm 0.20 in5.1 mm
04:55 AM 49.4°F9.7°C 47.5°F8.6°C 93% 6.1 mph SW9.8 kmh SW 12.0 mph19.3 kmh 29.88 in1011.9 mb 0.02 in0.5 mm 0.00 in0.0 mm 0.20 in5.1 mm
05:00 AM 49.5°F9.7°C 47.3°F8.5°C 92% 6.0 mph SW9.7 kmh SW 10.0 mph16.1 kmh 29.88 in1011.9 mb 0.02 in0.5 mm 0.00 in0.0 mm 0.20 in5.1 mm
05:05 AM 49.6°F9.8°C 47.4°F8.6°C 92% 5.5 mph SW8.9 kmh SW 10.0 mph16.1 kmh 29.88 in1011.9 mb 0.02 in0.5 mm 0.00 in0.0 mm 0.20 in5.1 mm
05:10 AM 49.7°F9.8°C 47.5°F8.6°C 92% 5.2 mph SW8.4 kmh SW 10.0 mph16.1 kmh 29.88 in1011.9 mb 0.02 in0.5 mm 0.00 in0.0 mm 0.20 in5.1 mm
05:15 AM 49.7°F9.8°C 47.5°F8.6°C 92% 5.2 mph SW8.4 kmh SW 11.0 mph17.7 kmh 29.87 in1011.5 mb 0.02 in0.5 mm 0.00 in0.0 mm 0.20 in5.1 mm
05:20 AM 49.7°F9.8°C 47.5°F8.6°C 92% 5.1 mph SW8.2 kmh SW 11.0 mph17.7 kmh 29.87 in1011.5 mb 0.02 in0.5 mm 0.00 in0.0 mm 0.20 in5.1 mm
05:25 AM 49.9°F9.9°C 47.4°F8.6°C 91% 4.8 mph SW7.7 kmh SW 11.0 mph17.7 kmh 29.87 in1011.5 mb 0.01 in0.3 mm 0.00 in0.0 mm 0.20 in5.1 mm
05:30 AM 50.1°F10.1°C 47.6°F8.7°C 91% 4.8 mph SW7.7 kmh SW 11.0 mph17.7 kmh 29.86 in1011.2 mb 0.01 in0.3 mm 0.00 in0.0 mm 0.20 in5.1 mm
05:35 AM 50.2°F10.1°C 47.4°F8.6°C 90% 4.8 mph SW7.7 kmh SW 9.0 mph14.5 kmh 29.86 in1011.2 mb 0.01 in0.3 mm 0.00 in0.0 mm 0.20 in5.1 mm
05:40 AM 50.2°F10.1°C 47.4°F8.6°C 90% 4.3 mph SW6.9 kmh SW 10.0 mph16.1 kmh 29.86 in1011.2 mb 0.01 in0.3 mm 0.00 in0.0 mm 0.20 in5.1 mm
05:45 AM 50.4°F10.2°C 47.6°F8.7°C 90% 4.4 mph SW7.1 kmh SW 10.0 mph16.1 kmh 29.86 in1011.2 mb 0.01 in0.3 mm 0.00 in0.0 mm 0.20 in5.1 mm
05:50 AM 50.3°F10.2°C 47.5°F8.6°C 90% 4.9 mph SW7.9 kmh SW 9.0 mph14.5 kmh 29.86 in1011.2 mb 0.01 in0.3 mm 0.00 in0.0 mm 0.20 in5.1 mm
05:55 AM 50.3°F10.2°C 47.5°F8.6°C 90% 4.6 mph SW7.4 kmh SW 9.0 mph14.5 kmh 29.86 in1011.2 mb 0.01 in0.3 mm 0.00 in0.0 mm 0.20 in5.1 mm
06:00 AM 50.3°F10.2°C 47.5°F8.6°C 90% 4.1 mph SW6.6 kmh SW 8.0 mph12.9 kmh 29.86 in1011.2 mb 0.01 in0.3 mm 0.00 in0.0 mm 0.20 in5.1 mm
06:05 AM 50.3°F10.2°C 47.5°F8.6°C 90% 4.0 mph SW6.4 kmh SW 8.0 mph12.9 kmh 29.86 in1011.2 mb 0.01 in0.3 mm 0.00 in0.0 mm 0.20 in5.1 mm
06:10 AM 50.3°F10.2°C 47.2°F8.4°C 89% 4.0 mph SW6.4 kmh SW 9.0 mph14.5 kmh 29.86 in1011.2 mb 0.01 in0.3 mm 0.00 in0.0 mm 0.20 in5.1 mm
06:15 AM 50.3°F10.2°C 47.2°F8.4°C 89% 4.0 mph SW6.4 kmh SW 9.0 mph14.5 kmh 29.85 in1010.8 mb 0.01 in0.3 mm 0.00 in0.0 mm 0.20 in5.1 mm
06:20 AM 50.3°F10.2°C 47.2°F8.4°C 89% 3.5 mph SW5.6 kmh SW 6.0 mph9.7 kmh 29.85 in1010.8 mb 0.00 in0.0 mm 0.00 in0.0 mm 0.20 in5.1 mm
06:25 AM 50.3°F10.2°C 47.2°F8.4°C 89% 3.0 mph SW4.8 kmh SW 7.0 mph11.3 kmh 29.85 in1010.8 mb 0.00 in0.0 mm 0.00 in0.0 mm 0.20 in5.1 mm
06:30 AM 50.3°F10.2°C 47.2°F8.4°C 89% 3.0 mph SW4.8 kmh SW 8.0 mph12.9 kmh 29.85 in1010.8 mb 0.00 in0.0 mm 0.00 in0.0 mm 0.20 in5.1 mm
06:35 AM 50.3°F10.2°C 46.9°F8.3°C 88% 3.4 mph SSW5.5 kmh SSW 8.0 mph12.9 kmh 29.84 in1010.5 mb 0.00 in0.0 mm 0.00 in0.0 mm 0.20 in5.1 mm
06:40 AM 50.3°F10.2°C 46.9°F8.3°C 88% 3.3 mph SW5.3 kmh SW 7.0 mph11.3 kmh 29.84 in1010.5 mb 0.00 in0.0 mm 0.00 in0.0 mm 0.20 in5.1 mm
06:45 AM 50.2°F10.1°C 46.8°F8.2°C 88% 2.6 mph SW4.2 kmh SW 7.0 mph11.3 kmh 29.84 in1010.5 mb 0.00 in0.0 mm 0.00 in0.0 mm 0.20 in5.1 mm
06:50 AM 50.2°F10.1°C 46.8°F8.2°C 88% 2.7 mph SW4.3 kmh SW 7.0 mph11.3 kmh 29.84 in1010.5 mb 0.00 in0.0 mm 0.00 in0.0 mm 0.20 in5.1 mm
06:55 AM 50.1°F10.1°C 47.0°F8.3°C 89% 3.0 mph SSW4.8 kmh SSW 10.0 mph16.1 kmh 29.84 in1010.5 mb 0.00 in0.0 mm 0.00 in0.0 mm 0.20 in5.1 mm
07:00 AM 50.1°F10.1°C 46.7°F8.2°C 88% 3.4 mph SSW5.5 kmh SSW 12.0 mph19.3 kmh 29.84 in1010.5 mb 0.00 in0.0 mm 0.00 in0.0 mm 0.20 in5.1 mm
07:05 AM 50.1°F10.1°C 46.7°F8.2°C 88% 4.0 mph SSW6.4 kmh SSW 12.0 mph19.3 kmh 29.84 in1010.5 mb 0.00 in0.0 mm 0.00 in0.0 mm 0.20 in5.1 mm
07:10 AM 50.1°F10.1°C 47.0°F8.3°C 89% 3.6 mph SW5.8 kmh SW 8.0 mph12.9 kmh 29.84 in1010.5 mb 0.00 in0.0 mm 0.00 in0.0 mm 0.20 in5.1 mm
07:15 AM 50.0°F10.0°C 46.9°F8.3°C 89% 2.2 mph SW3.5 kmh SW 4.0 mph6.4 kmh 29.84 in1010.5 mb 0.00 in0.0 mm 0.00 in0.0 mm 0.20 in5.1 mm
07:20 AM 49.9°F9.9°C 46.8°F8.2°C 89% 1.1 mph SW1.8 kmh SW 4.0 mph6.4 kmh 29.84 in1010.5 mb 0.00 in0.0 mm 0.00 in0.0 mm 0.20 in5.1 mm
07:25 AM 49.8°F9.9°C 46.7°F8.2°C 89% 1.3 mph SW2.1 kmh SW 5.0 mph8.0 kmh 29.84 in1010.5 mb 0.00 in0.0 mm 0.00 in0.0 mm 0.20 in5.1 mm
07:30 AM 49.7°F9.8°C 46.6°F8.1°C 89% 1.8 mph SW2.9 kmh SW 5.0 mph8.0 kmh 29.84 in1010.5 mb 0.00 in0.0 mm 0.00 in0.0 mm 0.20 in5.1 mm
07:35 AM 49.7°F9.8°C 46.6°F8.1°C 89% 2.4 mph SW3.9 kmh SW 5.0 mph8.0 kmh 29.84 in1010.5 mb 0.00 in0.0 mm 0.00 in0.0 mm 0.20 in5.1 mm
07:40 AM 49.6°F9.8°C 46.5°F8.1°C 89% 2.7 mph SW4.3 kmh SW 5.0 mph8.0 kmh 29.84 in1010.5 mb 0.00 in0.0 mm 0.00 in0.0 mm 0.20 in5.1 mm
07:45 AM 49.6°F9.8°C 46.5°F8.1°C 89% 2.7 mph SW4.3 kmh SW 5.0 mph8.0 kmh 29.84 in1010.5 mb 0.00 in0.0 mm 0.00 in0.0 mm 0.20 in5.1 mm
07:50 AM 49.5°F9.7°C 46.7°F8.2°C 90% 2.4 mph SW3.9 kmh SW 6.0 mph9.7 kmh 29.83 in1010.2 mb 0.00 in0.0 mm 0.00 in0.0 mm 0.20 in5.1 mm
07:55 AM 49.4°F9.7°C 46.6°F8.1°C 90% 2.0 mph SW3.2 kmh SW 6.0 mph9.7 kmh 29.83 in1010.2 mb 0.00 in0.0 mm 0.00 in0.0 mm 0.20 in5.1 mm
08:00 AM 49.4°F9.7°C 46.6°F8.1°C 90% 2.2 mph SW3.5 kmh SW 5.0 mph8.0 kmh 29.83 in1010.2 mb 0.00 in0.0 mm 0.00 in0.0 mm 0.20 in5.1 mm
08:05 AM 49.3°F9.6°C 46.5°F8.1°C 90% 2.2 mph SW3.5 kmh SW 5.0 mph8.0 kmh 29.83 in1010.2 mb 0.00 in0.0 mm 0.00 in0.0 mm 0.20 in5.1 mm
08:10 AM 49.2°F9.6°C 46.7°F8.2°C 91% 2.0 mph SW3.2 kmh SW 4.0 mph6.4 kmh 29.83 in1010.2 mb 0.00 in0.0 mm 0.00 in0.0 mm 0.20 in5.1 mm
08:15 AM 49.1°F9.5°C 46.6°F8.1°C 91% 2.0 mph SW3.2 kmh SW 4.0 mph6.4 kmh 29.82 in1009.8 mb 0.00 in0.0 mm 0.00 in0.0 mm 0.20 in5.1 mm
08:20 AM 49.2°F9.6°C 46.7°F8.2°C 91% 2.0 mph SW3.2 kmh SW 6.0 mph9.7 kmh 29.82 in1009.8 mb 0.00 in0.0 mm 0.00 in0.0 mm 0.20 in5.1 mm
08:25 AM 49.3°F9.6°C 46.8°F8.2°C 91% 2.2 mph SW3.5 kmh SW 7.0 mph11.3 kmh 29.82 in1009.8 mb 0.00 in0.0 mm 0.00 in0.0 mm 0.20 in5.1 mm
08:30 AM 49.4°F9.7°C 46.6°F8.1°C 90% 2.7 mph SW4.3 kmh SW 7.0 mph11.3 kmh 29.82 in1009.8 mb 0.00 in0.0 mm 0.00 in0.0 mm 0.20 in5.1 mm
08:35 AM 49.5°F9.7°C 46.7°F8.2°C 90% 3.5 mph SW5.6 kmh SW 7.0 mph11.3 kmh 29.82 in1009.8 mb 0.00 in0.0 mm 0.00 in0.0 mm 0.20 in5.1 mm
08:40 AM 49.6°F9.8°C 47.1°F8.4°C 91% 3.8 mph SW6.1 kmh SW 11.0 mph17.7 kmh 29.82 in1009.8 mb 0.00 in0.0 mm 0.00 in0.0 mm 0.20 in5.1 mm
08:45 AM 49.8°F9.9°C 46.7°F8.2°C 89% 4.4 mph SW7.1 kmh SW 15.0 mph24.1 kmh 29.82 in1009.8 mb 0.01 in0.3 mm 0.12 in3.0 mm 0.21 in5.3 mm
08:50 AM 49.9°F9.9°C 46.8°F8.2°C 89% 6.0 mph SW9.7 kmh SW 15.0 mph24.1 kmh 29.82 in1009.8 mb 0.01 in0.3 mm 0.00 in0.0 mm 0.21 in5.3 mm
08:55 AM 50.0°F10.0°C 46.6°F8.1°C 88% 6.7 mph SW10.8 kmh SW 12.0 mph19.3 kmh 29.82 in1009.8 mb 0.01 in0.3 mm 0.00 in0.0 mm 0.21 in5.3 mm
09:00 AM 50.2°F10.1°C 47.1°F8.4°C 89% 6.2 mph SW10.0 kmh SW 15.0 mph24.1 kmh 29.81 in1009.5 mb 0.01 in0.3 mm 0.00 in0.0 mm 0.21 in5.3 mm
09:05 AM 50.3°F10.2°C 47.2°F8.4°C 89% 6.0 mph SW9.7 kmh SW 15.0 mph24.1 kmh 29.82 in1009.8 mb 0.01 in0.3 mm 0.00 in0.0 mm 0.21 in5.3 mm
09:10 AM 50.4°F10.2°C 47.3°F8.5°C 89% 6.0 mph SW9.7 kmh SW 13.0 mph20.9 kmh 29.81 in1009.5 mb 0.01 in0.3 mm 0.00 in0.0 mm 0.21 in5.3 mm
09:15 AM 50.5°F10.3°C 47.4°F8.6°C 89% 6.0 mph SW9.7 kmh SW 12.0 mph19.3 kmh 29.81 in1009.5 mb 0.01 in0.3 mm 0.00 in0.0 mm 0.21 in5.3 mm
09:20 AM 50.6°F10.3°C 47.5°F8.6°C 89% 5.8 mph SW9.3 kmh SW 10.0 mph16.1 kmh 29.81 in1009.5 mb 0.01 in0.3 mm 0.00 in0.0 mm 0.21 in5.3 mm
09:25 AM 50.7°F10.4°C 47.6°F8.7°C 89% 5.8 mph SW9.3 kmh SW 10.0 mph16.1 kmh 29.81 in1009.5 mb 0.01 in0.3 mm 0.00 in0.0 mm 0.21 in5.3 mm
09:30 AM 50.9°F10.5°C 47.8°F8.8°C 89% 6.0 mph SW9.7 kmh SW 10.0 mph16.1 kmh 29.81 in1009.5 mb 0.01 in0.3 mm 0.00 in0.0 mm 0.21 in5.3 mm
09:35 AM 51.4°F10.8°C 48.3°F9.1°C 89% 6.1 mph SW9.8 kmh SW 12.0 mph19.3 kmh 29.81 in1009.5 mb 0.01 in0.3 mm 0.00 in0.0 mm 0.21 in5.3 mm
09:40 AM 51.7°F10.9°C 48.0°F8.9°C 87% 6.1 mph SW9.8 kmh SW 13.0 mph20.9 kmh 29.81 in1009.5 mb 0.01 in0.3 mm 0.00 in0.0 mm 0.21 in5.3 mm
09:45 AM 51.9°F11.1°C 48.2°F9.0°C 87% 6.4 mph SW10.3 kmh SW 13.0 mph20.9 kmh 29.80 in1009.1 mb 0.00 in0.0 mm 0.00 in0.0 mm 0.21 in5.3 mm
09:50 AM 52.0°F11.1°C 47.9°F8.8°C 86% 6.6 mph SW10.6 kmh SW 13.0 mph20.9 kmh 29.80 in1009.1 mb 0.00 in0.0 mm 0.00 in0.0 mm 0.21 in5.3 mm
09:55 AM 52.1°F11.2°C 48.0°F8.9°C 86% 6.4 mph SW10.3 kmh SW 13.0 mph20.9 kmh 29.80 in1009.1 mb 0.00 in0.0 mm 0.00 in0.0 mm 0.21 in5.3 mm
10:00 AM 52.3°F11.3°C 48.2°F9.0°C 86% 6.3 mph SW10.1 kmh SW 12.0 mph19.3 kmh 29.80 in1009.1 mb 0.00 in0.0 mm 0.00 in0.0 mm 0.21 in5.3 mm
10:05 AM 52.5°F11.4°C 48.4°F9.1°C 86% 6.5 mph SW10.5 kmh SW 17.0 mph27.4 kmh 29.79 in1008.8 mb 0.00 in0.0 mm 0.00 in0.0 mm 0.21 in5.3 mm
10:10 AM 52.6°F11.4°C 48.2°F9.0°C 85% 7.2 mph SW11.6 kmh SW 17.0 mph27.4 kmh 29.78 in1008.5 mb 0.00 in0.0 mm 0.00 in0.0 mm 0.21 in5.3 mm
10:15 AM 52.7°F11.5°C 48.0°F8.9°C 84% 7.9 mph SW12.7 kmh SW 17.0 mph27.4 kmh 29.78 in1008.5 mb 0.00 in0.0 mm 0.00 in0.0 mm 0.21 in5.3 mm
10:20 AM 52.9°F11.6°C 47.9°F8.8°C 83% 8.6 mph SW13.8 kmh SW 20.0 mph32.2 kmh 29.79 in1008.8 mb 0.00 in0.0 mm 0.00 in0.0 mm 0.21 in5.3 mm
10:25 AM 52.9°F11.6°C 47.9°F8.8°C 83% 9.0 mph SW14.5 kmh SW 20.0 mph32.2 kmh 29.78 in1008.5 mb 0.00 in0.0 mm 0.00 in0.0 mm 0.21 in5.3 mm
10:30 AM 52.9°F11.6°C 47.9°F8.8°C 83% 9.0 mph SW14.5 kmh SW 17.0 mph27.4 kmh 29.79 in1008.8 mb 0.00 in0.0 mm 0.00 in0.0 mm 0.21 in5.3 mm
10:35 AM 52.8°F11.6°C 47.8°F8.8°C 83% 8.5 mph SW13.7 kmh SW 17.0 mph27.4 kmh 29.78 in1008.5 mb 0.00 in0.0 mm 0.00 in0.0 mm 0.21 in5.3 mm
10:40 AM 52.6°F11.4°C 47.6°F8.7°C 83% 7.7 mph SW12.4 kmh SW 16.0 mph25.7 kmh 29.78 in1008.5 mb 0.00 in0.0 mm 0.00 in0.0 mm 0.21 in5.3 mm
10:45 AM 52.5°F11.4°C 47.8°F8.8°C 84% 7.2 mph SW11.6 kmh SW 16.0 mph25.7 kmh 29.77 in1008.1 mb 0.00 in0.0 mm 0.00 in0.0 mm 0.21 in5.3 mm
10:50 AM 52.3°F11.3°C 47.9°F8.8°C 85% 7.0 mph SW11.3 kmh SW 14.0 mph22.5 kmh 29.77 in1008.1 mb 0.00 in0.0 mm 0.00 in0.0 mm 0.21 in5.3 mm
10:55 AM 52.2°F11.2°C 48.1°F8.9°C 86% 7.0 mph SW11.3 kmh SW 14.0 mph22.5 kmh 29.77 in1008.1 mb 0.00 in0.0 mm 0.00 in0.0 mm 0.21 in5.3 mm
11:00 AM 52.0°F11.1°C 47.9°F8.8°C 86% 6.6 mph SW10.6 kmh SW 11.0 mph17.7 kmh 29.77 in1008.1 mb 0.00 in0.0 mm 0.00 in0.0 mm 0.21 in5.3 mm
11:05 AM 52.0°F11.1°C 47.6°F8.7°C 85% 5.7 mph SW9.2 kmh SW 10.0 mph16.1 kmh 29.76 in1007.8 mb 0.00 in0.0 mm 0.00 in0.0 mm 0.21 in5.3 mm
11:10 AM 52.1°F11.2°C 47.7°F8.7°C 85% 5.0 mph SW8.0 kmh SW 12.0 mph19.3 kmh 29.76 in1007.8 mb 0.00 in0.0 mm 0.00 in0.0 mm 0.21 in5.3 mm
11:15 AM 52.4°F11.3°C 47.4°F8.6°C 83% 5.7 mph SW9.2 kmh SW 19.0 mph30.6 kmh 29.76 in1007.8 mb 0.00 in0.0 mm 0.00 in0.0 mm 0.21 in5.3 mm
11:20 AM 52.7°F11.5°C 47.0°F8.3°C 81% 6.6 mph SW10.6 kmh SW 19.0 mph30.6 kmh 29.76 in1007.8 mb 0.00 in0.0 mm 0.00 in0.0 mm 0.21 in5.3 mm
11:25 AM 53.1°F11.7°C 46.4°F8.0°C 78% 7.5 mph SW12.1 kmh SW 17.0 mph27.4 kmh 29.76 in1007.8 mb 0.00 in0.0 mm 0.00 in0.0 mm 0.21 in5.3 mm
11:30 AM 53.4°F11.9°C 46.4°F8.0°C 77% 8.2 mph SW13.2 kmh SW 17.0 mph27.4 kmh 29.76 in1007.8 mb 0.00 in0.0 mm 0.00 in0.0 mm 0.21 in5.3 mm
11:35 AM 53.6°F12.0°C 46.2°F7.9°C 76% 8.7 mph SW14.0 kmh SW 17.0 mph27.4 kmh 29.76 in1007.8 mb 0.00 in0.0 mm 0.00 in0.0 mm 0.21 in5.3 mm
11:40 AM 53.5°F11.9°C 46.5°F8.1°C 77% 9.5 mph SW15.3 kmh SW 18.0 mph29.0 kmh 29.76 in1007.8 mb 0.01 in0.3 mm 0.12 in3.0 mm 0.22 in5.6 mm
11:45 AM 53.2°F11.8°C 46.5°F8.1°C 78% 10.5 mph SW16.9 kmh SW 20.0 mph32.2 kmh 29.76 in1007.8 mb 0.01 in0.3 mm 0.00 in0.0 mm 0.22 in5.6 mm
11:50 AM 53.1°F11.7°C 46.4°F8.0°C 78% 10.0 mph SW16.1 kmh SW 20.0 mph32.2 kmh 29.75 in1007.5 mb 0.01 in0.3 mm 0.00 in0.0 mm 0.22 in5.6 mm
11:55 AM 53.2°F11.8°C 46.9°F8.3°C 79% 7.9 mph SW12.7 kmh SW 12.0 mph19.3 kmh 29.75 in1007.5 mb 0.01 in0.3 mm 0.00 in0.0 mm 0.22 in5.6 mm
12:00 PM 53.3°F11.8°C 46.6°F8.1°C 78% 6.4 mph SW10.3 kmh SW 16.0 mph25.7 kmh 29.75 in1007.5 mb 0.01 in0.3 mm 0.00 in0.0 mm 0.22 in5.6 mm
12:05 PM 53.6°F12.0°C 45.9°F7.7°C 75% 6.7 mph SW10.8 kmh SW 17.0 mph27.4 kmh 29.75 in1007.5 mb 0.01 in0.3 mm 0.00 in0.0 mm 0.22 in5.6 mm
12:10 PM 53.6°F12.0°C 45.5°F7.5°C 74% 8.4 mph SW13.5 kmh SW 18.0 mph29.0 kmh 29.75 in1007.5 mb 0.01 in0.3 mm 0.00 in0.0 mm 0.22 in5.6 mm
12:15 PM 53.7°F12.1°C 44.9°F7.2°C 72% 9.8 mph SW15.8 kmh SW 19.0 mph30.6 kmh 29.74 in1007.1 mb 0.01 in0.3 mm 0.00 in0.0 mm 0.22 in5.6 mm
12:20 PM 53.7°F12.1°C 44.5°F6.9°C 71% 9.8 mph SW15.8 kmh SW 19.0 mph30.6 kmh 29.75 in1007.5 mb 0.01 in0.3 mm 0.00 in0.0 mm 0.22 in5.6 mm
12:25 PM 53.8°F12.1°C 44.2°F6.8°C 70% 10.1 mph SW16.3 kmh SW 23.0 mph37.0 kmh 29.74 in1007.1 mb 0.01 in0.3 mm 0.00 in0.0 mm 0.22 in5.6 mm
12:30 PM 53.8°F12.1°C 44.6°F7.0°C 71% 10.5 mph SW16.9 kmh SW 23.0 mph37.0 kmh 29.74 in1007.1 mb 0.01 in0.3 mm 0.00 in0.0 mm 0.22 in5.6 mm
12:35 PM 53.8°F12.1°C 44.2°F6.8°C 70% 10.2 mph SW16.4 kmh SW 24.0 mph38.6 kmh 29.74 in1007.1 mb 0.01 in0.3 mm 0.00 in0.0 mm 0.22 in5.6 mm
12:40 PM 53.9°F12.2°C 44.3°F6.8°C 70% 10.5 mph SW16.9 kmh SW 24.0 mph38.6 kmh 29.73 in1006.8 mb 0.00 in0.0 mm 0.00 in0.0 mm 0.22 in5.6 mm
12:45 PM 53.9°F12.2°C 44.0°F6.7°C 69% 11.5 mph SW18.5 kmh SW 22.0 mph35.4 kmh 29.73 in1006.8 mb 0.00 in0.0 mm 0.00 in0.0 mm 0.22 in5.6 mm
12:50 PM 53.9°F12.2°C 44.0°F6.7°C 69% 12.2 mph SW19.6 kmh SW 27.0 mph43.5 kmh 29.73 in1006.8 mb 0.00 in0.0 mm 0.00 in0.0 mm 0.22 in5.6 mm
12:55 PM 53.9°F12.2°C 44.3°F6.8°C 70% 12.2 mph SW19.6 kmh SW 27.0 mph43.5 kmh 29.72 in1006.4 mb 0.00 in0.0 mm 0.00 in0.0 mm 0.22 in5.6 mm
01:00 PM 54.0°F12.2°C 44.4°F6.9°C 70% 11.1 mph SW17.9 kmh SW 17.0 mph27.4 kmh 29.72 in1006.4 mb 0.00 in0.0 mm 0.00 in0.0 mm 0.22 in5.6 mm
01:05 PM 54.0°F12.2°C 44.1°F6.7°C 69% 9.8 mph SW15.8 kmh SW 18.0 mph29.0 kmh 29.72 in1006.4 mb 0.00 in0.0 mm 0.00 in0.0 mm 0.22 in5.6 mm
01:10 PM 54.1°F12.3°C 44.2°F6.8°C 69% 9.5 mph SW15.3 kmh SW 18.0 mph29.0 kmh 29.72 in1006.4 mb 0.00 in0.0 mm 0.00 in0.0 mm 0.22 in5.6 mm
01:15 PM 54.1°F12.3°C 44.5°F6.9°C 70% 9.8 mph SW15.8 kmh SW 17.0 mph27.4 kmh 29.71 in1006.1 mb 0.00 in0.0 mm 0.00 in0.0 mm 0.22 in5.6 mm
01:20 PM 54.1°F12.3°C 44.5°F6.9°C 70% 9.8 mph SW15.8 kmh SW 18.0 mph29.0 kmh 29.71 in1006.1 mb 0.00 in0.0 mm 0.00 in0.0 mm 0.22 in5.6 mm
01:25 PM 54.1°F12.3°C 43.8°F6.6°C 68% 9.3 mph SW15.0 kmh SW 20.0 mph32.2 kmh 29.71 in1006.1 mb 0.00 in0.0 mm 0.00 in0.0 mm 0.22 in5.6 mm
01:30 PM 54.2°F12.3°C 43.5°F6.4°C 67% 9.5 mph SW15.3 kmh SW 23.0 mph37.0 kmh 29.70 in1005.8 mb 0.00 in0.0 mm 0.00 in0.0 mm 0.22 in5.6 mm
01:35 PM 54.3°F12.4°C 43.6°F6.4°C 67% 10.7 mph SW17.2 kmh SW 23.0 mph37.0 kmh 29.70 in1005.8 mb 0.00 in0.0 mm 0.00 in0.0 mm 0.22 in5.6 mm
01:40 PM 54.4°F12.4°C 43.7°F6.5°C 67% 12.1 mph SW19.5 kmh SW 20.0 mph32.2 kmh 29.70 in1005.8 mb 0.00 in0.0 mm 0.00 in0.0 mm 0.22 in5.6 mm
01:45 PM 54.4°F12.4°C 43.7°F6.5°C 67% 12.2 mph SW19.6 kmh SW 19.0 mph30.6 kmh 29.70 in1005.8 mb 0.00 in0.0 mm 0.00 in0.0 mm 0.22 in5.6 mm
01:50 PM 54.4°F12.4°C 44.1°F6.7°C 68% 11.1 mph SW17.9 kmh SW 18.0 mph29.0 kmh 29.70 in1005.8 mb 0.00 in0.0 mm 0.00 in0.0 mm 0.22 in5.6 mm
01:55 PM 54.4°F12.4°C 43.7°F6.5°C 67% 10.0 mph SW16.1 kmh SW 20.0 mph32.2 kmh 29.70 in1005.8 mb 0.00 in0.0 mm 0.00 in0.0 mm 0.22 in5.6 mm
02:00 PM 54.4°F12.4°C 43.7°F6.5°C 67% 9.9 mph SW15.9 kmh SW 20.0 mph32.2 kmh 29.69 in1005.4 mb 0.00 in0.0 mm 0.00 in0.0 mm 0.22 in5.6 mm
02:05 PM 54.4°F12.4°C 43.7°F6.5°C 67% 9.5 mph SW15.3 kmh SW 17.0 mph27.4 kmh 29.69 in1005.4 mb 0.00 in0.0 mm 0.00 in0.0 mm 0.22 in5.6 mm
02:10 PM 54.3°F12.4°C 43.6°F6.4°C 67% 9.0 mph SW14.5 kmh SW 17.0 mph27.4 kmh 29.69 in1005.4 mb 0.00 in0.0 mm 0.00 in0.0 mm 0.22 in5.6 mm
02:15 PM 54.3°F12.4°C 43.2°F6.2°C 66% 9.1 mph SW14.6 kmh SW 17.0 mph27.4 kmh 29.69 in1005.4 mb 0.00 in0.0 mm 0.00 in0.0 mm 0.22 in5.6 mm
02:20 PM 54.3°F12.4°C 43.2°F6.2°C 66% 9.4 mph SW15.1 kmh SW 18.0 mph29.0 kmh 29.68 in1005.1 mb 0.00 in0.0 mm 0.00 in0.0 mm 0.22 in5.6 mm
02:25 PM 54.2°F12.3°C 43.5°F6.4°C 67% 9.9 mph SW15.9 kmh SW 18.0 mph29.0 kmh 29.69 in1005.4 mb 0.00 in0.0 mm 0.00 in0.0 mm 0.22 in5.6 mm
02:30 PM 54.2°F12.3°C 43.5°F6.4°C 67% 10.1 mph SW16.3 kmh SW 17.0 mph27.4 kmh 29.69 in1005.4 mb 0.00 in0.0 mm 0.00 in0.0 mm 0.22 in5.6 mm
02:35 PM 54.1°F12.3°C 43.4°F6.3°C 67% 9.6 mph SW15.4 kmh SW 16.0 mph25.7 kmh 29.68 in1005.1 mb 0.00 in0.0 mm 0.00 in0.0 mm 0.22 in5.6 mm
02:40 PM 54.1°F12.3°C 43.0°F6.1°C 66% 9.1 mph SW14.6 kmh SW 16.0 mph25.7 kmh 29.68 in1005.1 mb 0.00 in0.0 mm 0.00 in0.0 mm 0.22 in5.6 mm
02:45 PM 54.0°F12.2°C 42.9°F6.1°C 66% 8.7 mph SW14.0 kmh SW 16.0 mph25.7 kmh 29.68 in1005.1 mb 0.00 in0.0 mm 0.00 in0.0 mm 0.22 in5.6 mm
02:50 PM 53.8°F12.1°C 43.1°F6.2°C 67% 8.4 mph SW13.5 kmh SW 16.0 mph25.7 kmh 29.68 in1005.1 mb 0.00 in0.0 mm 0.00 in0.0 mm 0.22 in5.6 mm
02:55 PM 53.8°F12.1°C 43.1°F6.2°C 67% 8.6 mph SW13.8 kmh SW 16.0 mph25.7 kmh 29.68 in1005.1 mb 0.00 in0.0 mm 0.00 in0.0 mm 0.22 in5.6 mm
03:00 PM 53.7°F12.1°C 43.4°F6.3°C 68% 9.1 mph SW14.6 kmh SW 19.0 mph30.6 kmh 29.68 in1005.1 mb 0.00 in0.0 mm 0.00 in0.0 mm 0.22 in5.6 mm
03:05 PM 53.6°F12.0°C 43.3°F6.3°C 68% 9.2 mph SW14.8 kmh SW 19.0 mph30.6 kmh 29.68 in1005.1 mb 0.00 in0.0 mm 0.00 in0.0 mm 0.22 in5.6 mm
03:10 PM 53.6°F12.0°C 43.3°F6.3°C 68% 8.6 mph SW13.8 kmh SW 15.0 mph24.1 kmh 29.68 in1005.1 mb 0.00 in0.0 mm 0.00 in0.0 mm 0.22 in5.6 mm
03:15 PM 53.6°F12.0°C 43.3°F6.3°C 68% 8.4 mph SW13.5 kmh SW 16.0 mph25.7 kmh 29.69 in1005.4 mb 0.00 in0.0 mm 0.00 in0.0 mm 0.22 in5.6 mm
03:20 PM 53.5°F11.9°C 43.6°F6.4°C 69% 8.8 mph SW14.2 kmh SW 18.0 mph29.0 kmh 29.69 in1005.4 mb 0.00 in0.0 mm 0.00 in0.0 mm 0.22 in5.6 mm
03:25 PM 53.4°F11.9°C 43.5°F6.4°C 69% 9.5 mph SW15.3 kmh SW 18.0 mph29.0 kmh 29.69 in1005.4 mb 0.00 in0.0 mm 0.00 in0.0 mm 0.22 in5.6 mm
03:30 PM 53.4°F11.9°C 43.5°F6.4°C 69% 9.7 mph SW15.6 kmh SW 16.0 mph25.7 kmh 29.68 in1005.1 mb 0.00 in0.0 mm 0.00 in0.0 mm 0.22 in5.6 mm
03:35 PM 53.2°F11.8°C 43.7°F6.5°C 70% 8.6 mph SW13.8 kmh SW 15.0 mph24.1 kmh 29.69 in1005.4 mb 0.00 in0.0 mm 0.00 in0.0 mm 0.22 in5.6 mm
03:40 PM 53.1°F11.7°C 43.9°F6.6°C 71% 7.3 mph SW11.7 kmh SW 14.0 mph22.5 kmh 29.68 in1005.1 mb 0.00 in0.0 mm 0.00 in0.0 mm 0.22 in5.6 mm
03:45 PM 53.0°F11.7°C 43.8°F6.6°C 71% 6.6 mph SW10.6 kmh SW 13.0 mph20.9 kmh 29.68 in1005.1 mb 0.00 in0.0 mm 0.00 in0.0 mm 0.22 in5.6 mm
03:50 PM 52.9°F11.6°C 43.7°F6.5°C 71% 6.7 mph SW10.8 kmh SW 18.0 mph29.0 kmh 29.68 in1005.1 mb 0.00 in0.0 mm 0.00 in0.0 mm 0.22 in5.6 mm
03:55 PM 53.0°F11.7°C 43.5°F6.4°C 70% 7.5 mph SW12.1 kmh SW 18.0 mph29.0 kmh 29.68 in1005.1 mb 0.00 in0.0 mm 0.00 in0.0 mm 0.22 in5.6 mm
04:00 PM 53.0°F11.7°C 43.8°F6.6°C 71% 7.6 mph SW12.2 kmh SW 13.0 mph20.9 kmh 29.68 in1005.1 mb 0.00 in0.0 mm 0.00 in0.0 mm 0.22 in5.6 mm
04:05 PM 52.9°F11.6°C 43.7°F6.5°C 71% 6.6 mph SW10.6 kmh SW 10.0 mph16.1 kmh 29.68 in1005.1 mb 0.00 in0.0 mm 0.00 in0.0 mm 0.22 in5.6 mm
04:10 PM 52.8°F11.6°C 44.4°F6.9°C 73% 6.0 mph WSW9.7 kmh WSW 10.0 mph16.1 kmh 29.67 in1004.7 mb 0.00 in0.0 mm 0.00 in0.0 mm 0.22 in5.6 mm
04:15 PM 52.6°F11.4°C 44.5°F6.9°C 74% 5.8 mph WSW9.3 kmh WSW 12.0 mph19.3 kmh 29.67 in1004.7 mb 0.00 in0.0 mm 0.00 in0.0 mm 0.22 in5.6 mm
04:20 PM 52.3°F11.3°C 45.0°F7.2°C 76% 6.2 mph WSW10.0 kmh WSW 12.0 mph19.3 kmh 29.67 in1004.7 mb 0.00 in0.0 mm 0.00 in0.0 mm 0.22 in5.6 mm
04:25 PM 51.8°F11.0°C 44.8°F7.1°C 77% 7.2 mph WSW11.6 kmh WSW 13.0 mph20.9 kmh 29.67 in1004.7 mb 0.01 in0.3 mm 0.12 in3.0 mm 0.23 in5.8 mm
04:30 PM 51.5°F10.8°C 45.2°F7.3°C 79% 6.9 mph SW11.1 kmh SW 13.0 mph20.9 kmh 29.66 in1004.4 mb 0.01 in0.3 mm 0.00 in0.0 mm 0.23 in5.8 mm
04:35 PM 51.2°F10.7°C 45.2°F7.3°C 80% 5.5 mph SW8.9 kmh SW 10.0 mph16.1 kmh 29.66 in1004.4 mb 0.01 in0.3 mm 0.00 in0.0 mm 0.23 in5.8 mm
04:40 PM 51.1°F10.6°C 45.5°F7.5°C 81% 5.0 mph WSW8.0 kmh WSW 11.0 mph17.7 kmh 29.66 in1004.4 mb 0.01 in0.3 mm 0.00 in0.0 mm 0.23 in5.8 mm
04:45 PM 51.0°F10.6°C 45.4°F7.4°C 81% 6.0 mph WSW9.7 kmh WSW 12.0 mph19.3 kmh 29.66 in1004.4 mb 0.01 in0.3 mm 0.00 in0.0 mm 0.23 in5.8 mm
04:50 PM 50.9°F10.5°C 45.3°F7.4°C 81% 6.8 mph WSW10.9 kmh WSW 15.0 mph24.1 kmh 29.66 in1004.4 mb 0.01 in0.3 mm 0.00 in0.0 mm 0.23 in5.8 mm
04:55 PM 50.7°F10.4°C 45.7°F7.6°C 83% 7.0 mph WSW11.3 kmh WSW 15.0 mph24.1 kmh 29.66 in1004.4 mb 0.01 in0.3 mm 0.00 in0.0 mm 0.23 in5.8 mm
05:00 PM 50.3°F10.2°C 46.0°F7.8°C 85% 6.9 mph WSW11.1 kmh WSW 12.0 mph19.3 kmh 29.66 in1004.4 mb 0.01 in0.3 mm 0.00 in0.0 mm 0.23 in5.8 mm
05:05 PM 49.9°F9.9°C 46.2°F7.9°C 87% 6.2 mph WSW10.0 kmh WSW 10.0 mph16.1 kmh 29.66 in1004.4 mb 0.01 in0.3 mm 0.00 in0.0 mm 0.23 in5.8 mm
05:10 PM 49.5°F9.7°C 46.1°F7.8°C 88% 5.1 mph WSW8.2 kmh WSW 9.0 mph14.5 kmh 29.67 in1004.7 mb 0.01 in0.3 mm 0.00 in0.0 mm 0.23 in5.8 mm
05:15 PM 49.3°F9.6°C 46.2°F7.9°C 89% 4.5 mph WSW7.2 kmh WSW 9.0 mph14.5 kmh 29.66 in1004.4 mb 0.01 in0.3 mm 0.00 in0.0 mm 0.23 in5.8 mm
05:20 PM 49.2°F9.6°C 46.4°F8.0°C 90% 4.2 mph WSW6.8 kmh WSW 7.0 mph11.3 kmh 29.66 in1004.4 mb 0.01 in0.3 mm 0.00 in0.0 mm 0.24 in6.1 mm
05:25 PM 49.1°F9.5°C 46.3°F7.9°C 90% 3.3 mph WSW5.3 kmh WSW 6.0 mph9.7 kmh 29.65 in1004.1 mb 0.01 in0.3 mm 0.00 in0.0 mm 0.24 in6.1 mm
05:30 PM 49.2°F9.6°C 46.1°F7.8°C 89% 3.0 mph WSW4.8 kmh WSW 9.0 mph14.5 kmh 29.65 in1004.1 mb 0.01 in0.3 mm 0.00 in0.0 mm 0.24 in6.1 mm
05:35 PM 49.4°F9.7°C 46.0°F7.8°C 88% 3.7 mph WSW6.0 kmh WSW 9.0 mph14.5 kmh 29.65 in1004.1 mb 0.01 in0.3 mm 0.00 in0.0 mm 0.24 in6.1 mm
05:40 PM 49.5°F9.7°C 46.1°F7.8°C 88% 4.2 mph WSW6.8 kmh WSW 8.0 mph12.9 kmh 29.65 in1004.1 mb 0.01 in0.3 mm 0.00 in0.0 mm 0.24 in6.1 mm
05:45 PM 49.6°F9.8°C 46.2°F7.9°C 88% 3.7 mph WSW6.0 kmh WSW 6.0 mph9.7 kmh 29.64 in1003.7 mb 0.01 in0.3 mm 0.00 in0.0 mm 0.24 in6.1 mm
05:50 PM 49.7°F9.8°C 46.0°F7.8°C 87% 3.2 mph WSW5.1 kmh WSW 7.0 mph11.3 kmh 29.64 in1003.7 mb 0.01 in0.3 mm 0.00 in0.0 mm 0.24 in6.1 mm
05:55 PM 49.9°F9.9°C 45.6°F7.6°C 85% 3.0 mph WSW4.8 kmh WSW 9.0 mph14.5 kmh 29.65 in1004.1 mb 0.01 in0.3 mm 0.00 in0.0 mm 0.24 in6.1 mm
06:00 PM 50.3°F10.2°C 45.3°F7.4°C 83% 3.0 mph SW4.8 kmh SW 9.0 mph14.5 kmh 29.65 in1004.1 mb 0.01 in0.3 mm 0.00 in0.0 mm 0.24 in6.1 mm
06:05 PM 50.5°F10.3°C 45.2°F7.3°C 82% 3.5 mph SW5.6 kmh SW 8.0 mph12.9 kmh 29.65 in1004.1 mb 0.01 in0.3 mm 0.00 in0.0 mm 0.24 in6.1 mm
06:10 PM 50.6°F10.3°C 45.0°F7.2°C 81% 4.0 mph SW6.4 kmh SW 8.0 mph12.9 kmh 29.65 in1004.1 mb 0.01 in0.3 mm 0.00 in0.0 mm 0.24 in6.1 mm
06:15 PM 50.8°F10.4°C 44.9°F7.2°C 80% 4.0 mph SW6.4 kmh SW 8.0 mph12.9 kmh 29.65 in1004.1 mb 0.01 in0.3 mm 0.00 in0.0 mm 0.24 in6.1 mm
06:20 PM 50.8°F10.4°C 44.5°F6.9°C 79% 4.0 mph SW6.4 kmh SW 9.0 mph14.5 kmh 29.65 in1004.1 mb 0.00 in0.0 mm 0.00 in0.0 mm 0.24 in6.1 mm
06:25 PM 50.9°F10.5°C 44.6°F7.0°C 79% 4.5 mph SW7.2 kmh SW 10.0 mph16.1 kmh 29.66 in1004.4 mb 0.00 in0.0 mm 0.00 in0.0 mm 0.24 in6.1 mm
06:30 PM 51.0°F10.6°C 44.4°F6.9°C 78% 5.4 mph SW8.7 kmh SW 13.0 mph20.9 kmh 29.66 in1004.4 mb 0.00 in0.0 mm 0.00 in0.0 mm 0.24 in6.1 mm
06:35 PM 51.2°F10.7°C 44.6°F7.0°C 78% 6.3 mph SW10.1 kmh SW 13.0 mph20.9 kmh 29.66 in1004.4 mb 0.00 in0.0 mm 0.00 in0.0 mm 0.24 in6.1 mm
06:40 PM 51.0°F10.6°C 44.7°F7.1°C 79% 7.1 mph SW11.4 kmh SW 17.0 mph27.4 kmh 29.66 in1004.4 mb 0.01 in0.3 mm 0.12 in3.0 mm 0.24 in6.1 mm
06:45 PM 50.6°F10.3°C 45.3°F7.4°C 82% 7.5 mph SW12.1 kmh SW 17.0 mph27.4 kmh 29.66 in1004.4 mb 0.02 in0.5 mm 0.12 in3.0 mm 0.25 in6.4 mm
06:50 PM 50.2°F10.1°C 45.6°F7.6°C 84% 7.2 mph SW11.6 kmh SW 11.0 mph17.7 kmh 29.66 in1004.4 mb 0.02 in0.5 mm 0.00 in0.0 mm 0.26 in6.6 mm
06:55 PM 49.9°F9.9°C 45.6°F7.6°C 85% 6.0 mph WSW9.7 kmh WSW 10.0 mph16.1 kmh 29.65 in1004.1 mb 0.02 in0.5 mm 0.00 in0.0 mm 0.26 in6.6 mm
07:00 PM 49.7°F9.8°C 45.7°F7.6°C 86% 4.7 mph WSW7.6 kmh WSW 7.0 mph11.3 kmh 29.65 in1004.1 mb 0.02 in0.5 mm 0.00 in0.0 mm 0.26 in6.6 mm
07:05 PM 49.6°F9.8°C 45.6°F7.6°C 86% 4.0 mph WSW6.4 kmh WSW 7.0 mph11.3 kmh 29.65 in1004.1 mb 0.02 in0.5 mm 0.00 in0.0 mm 0.26 in6.6 mm
07:10 PM 49.6°F9.8°C 45.9°F7.7°C 87% 4.1 mph WSW6.6 kmh WSW 10.0 mph16.1 kmh 29.65 in1004.1 mb 0.02 in0.5 mm 0.00 in0.0 mm 0.26 in6.6 mm
07:15 PM 49.6°F9.8°C 45.9°F7.7°C 87% 4.6 mph SW7.4 kmh SW 10.0 mph16.1 kmh 29.65 in1004.1 mb 0.02 in0.5 mm 0.00 in0.0 mm 0.26 in6.6 mm
07:20 PM 49.6°F9.8°C 46.2°F7.9°C 88% 5.1 mph SW8.2 kmh SW 9.0 mph14.5 kmh 29.66 in1004.4 mb 0.02 in0.5 mm 0.00 in0.0 mm 0.26 in6.6 mm
07:25 PM 49.5°F9.7°C 46.1°F7.8°C 88% 5.4 mph WSW8.7 kmh WSW 9.0 mph14.5 kmh 29.66 in1004.4 mb 0.03 in0.8 mm 0.12 in3.0 mm 0.27 in6.9 mm
07:30 PM 49.3°F9.6°C 46.2°F7.9°C 89% 5.6 mph WSW9.0 kmh WSW 9.0 mph14.5 kmh 29.66 in1004.4 mb 0.04 in1.0 mm 0.12 in3.0 mm 0.28 in7.1 mm
07:35 PM 49.2°F9.6°C 46.4°F8.0°C 90% 4.8 mph WSW7.7 kmh WSW 6.0 mph9.7 kmh 29.66 in1004.4 mb 0.04 in1.0 mm 0.00 in0.0 mm 0.28 in7.1 mm
07:40 PM 49.2°F9.6°C 46.4°F8.0°C 90% 3.1 mph SW5.0 kmh SW 8.0 mph12.9 kmh 29.66 in1004.4 mb 0.04 in1.0 mm 0.00 in0.0 mm 0.28 in7.1 mm
07:45 PM 49.1°F9.5°C 46.3°F7.9°C 90% 2.5 mph SW4.0 kmh SW 8.0 mph12.9 kmh 29.66 in1004.4 mb 0.05 in1.3 mm 0.12 in3.0 mm 0.31 in7.9 mm
07:50 PM 49.0°F9.4°C 46.5°F8.1°C 91% 3.3 mph SW5.3 kmh SW 8.0 mph12.9 kmh 29.66 in1004.4 mb 0.08 in2.0 mm 0.36 in9.1 mm 0.34 in8.6 mm
07:55 PM 49.0°F9.4°C 46.5°F8.1°C 91% 3.5 mph SW5.6 kmh SW 7.0 mph11.3 kmh 29.67 in1004.7 mb 0.12 in3.0 mm 0.48 in12.2 mm 0.38 in9.7 mm
08:00 PM 49.0°F9.4°C 46.8°F8.2°C 92% 2.9 mph SW4.7 kmh SW 6.0 mph9.7 kmh 29.67 in1004.7 mb 0.13 in3.3 mm 0.01 in0.3 mm 0.39 in9.9 mm
08:05 PM 48.9°F9.4°C 46.7°F8.2°C 92% 2.7 mph SSW4.3 kmh SSW 6.0 mph9.7 kmh 29.66 in1004.4 mb 0.16 in4.1 mm 0.36 in9.1 mm 0.42 in10.7 mm
08:10 PM 48.9°F9.4°C 46.7°F8.2°C 92% 2.4 mph SSW3.9 kmh SSW 6.0 mph9.7 kmh 29.66 in1004.4 mb 0.18 in4.6 mm 0.24 in6.1 mm 0.44 in11.2 mm
08:15 PM 48.8°F9.3°C 46.6°F8.1°C 92% 1.6 mph SW2.6 kmh SW 5.0 mph8.0 kmh 29.66 in1004.4 mb 0.19 in4.8 mm 0.12 in3.0 mm 0.45 in11.4 mm
08:20 PM 48.7°F9.3°C 46.5°F8.1°C 92% 1.1 mph SW1.8 kmh SW 4.0 mph6.4 kmh 29.66 in1004.4 mb 0.20 in5.1 mm 0.12 in3.0 mm 0.46 in11.7 mm
08:25 PM 48.7°F9.3°C 46.8°F8.2°C 93% 1.0 mph WSW1.6 kmh WSW 3.0 mph4.8 kmh 29.66 in1004.4 mb 0.19 in4.8 mm 0.00 in0.0 mm 0.46 in11.7 mm
08:30 PM 48.7°F9.3°C 46.8°F8.2°C 93% 0.5 mph WNW0.8 kmh WNW 2.0 mph3.2 kmh 29.65 in1004.1 mb 0.18 in4.6 mm 0.00 in0.0 mm 0.46 in11.7 mm
08:35 PM 48.6°F9.2°C 46.4°F8.0°C 92% Calm Calm 2.0 mph3.2 kmh 29.65 in1004.1 mb 0.18 in4.6 mm 0.00 in0.0 mm 0.46 in11.7 mm
08:40 PM 48.5°F9.2°C 46.6°F8.1°C 93% Calm Calm 2.0 mph3.2 kmh 29.65 in1004.1 mb 0.17 in4.3 mm 0.00 in0.0 mm 0.46 in11.7 mm
08:45 PM 48.5°F9.2°C 46.6°F8.1°C 93% 0.3 mph WSW0.5 kmh WSW 2.0 mph3.2 kmh 29.65 in1004.1 mb 0.15 in3.8 mm 0.00 in0.0 mm 0.46 in11.7 mm
08:50 PM 48.4°F9.1°C 46.5°F8.1°C 93% 0.9 mph SW1.4 kmh SW 6.0 mph9.7 kmh 29.65 in1004.1 mb 0.11 in2.8 mm 0.00 in0.0 mm 0.46 in11.7 mm
08:55 PM 48.5°F9.2°C 46.6°F8.1°C 93% 1.6 mph SW2.6 kmh SW 6.0 mph9.7 kmh 29.65 in1004.1 mb 0.08 in2.0 mm 0.00 in0.0 mm 0.46 in11.7 mm
09:00 PM 48.4°F9.1°C 46.2°F7.9°C 92% 1.8 mph SW2.9 kmh SW 4.0 mph6.4 kmh 29.65 in1004.1 mb 0.06 in1.5 mm 0.00 in0.0 mm 0.46 in11.7 mm
09:05 PM 48.4°F9.1°C 46.2°F7.9°C 92% 1.3 mph SW2.1 kmh SW 4.0 mph6.4 kmh 29.65 in1004.1 mb 0.03 in0.8 mm 0.00 in0.0 mm 0.46 in11.7 mm
09:10 PM 48.4°F9.1°C 46.2°F7.9°C 92% 1.0 mph SW1.6 kmh SW 4.0 mph6.4 kmh 29.66 in1004.4 mb 0.02 in0.5 mm 0.00 in0.0 mm 0.46 in11.7 mm
09:15 PM 48.3°F9.1°C 46.1°F7.8°C 92% 0.6 mph SW1.0 kmh SW 2.0 mph3.2 kmh 29.66 in1004.4 mb 0.01 in0.3 mm 0.00 in0.0 mm 0.46 in11.7 mm
09:20 PM 48.3°F9.1°C 46.1°F7.8°C 92% 0.5 mph SW0.8 kmh SW 6.0 mph9.7 kmh 29.66 in1004.4 mb 0.00 in0.0 mm 0.00 in0.0 mm 0.46 in11.7 mm
09:25 PM 48.3°F9.1°C 46.1°F7.8°C 92% 1.4 mph SW2.3 kmh SW 7.0 mph11.3 kmh 29.66 in1004.4 mb 0.00 in0.0 mm 0.00 in0.0 mm 0.46 in11.7 mm
09:30 PM 48.4°F9.1°C 46.2°F7.9°C 92% 2.4 mph SW3.9 kmh SW 7.0 mph11.3 kmh 29.66 in1004.4 mb 0.00 in0.0 mm 0.00 in0.0 mm 0.46 in11.7 mm
09:35 PM 48.4°F9.1°C 46.2°F7.9°C 92% 2.8 mph SW4.5 kmh SW 10.0 mph16.1 kmh 29.66 in1004.4 mb 0.00 in0.0 mm 0.00 in0.0 mm 0.46 in11.7 mm
09:40 PM 48.5°F9.2°C 46.3°F7.9°C 92% 2.8 mph SW4.5 kmh SW 10.0 mph16.1 kmh 29.66 in1004.4 mb 0.00 in0.0 mm 0.00 in0.0 mm 0.46 in11.7 mm
09:45 PM 48.5°F9.2°C 46.3°F7.9°C 92% 3.1 mph SW5.0 kmh SW 7.0 mph11.3 kmh 29.65 in1004.1 mb 0.00 in0.0 mm 0.00 in0.0 mm 0.46 in11.7 mm
09:50 PM 48.5°F9.2°C 46.3°F7.9°C 92% 3.1 mph SW5.0 kmh SW 9.0 mph14.5 kmh 29.66 in1004.4 mb 0.00 in0.0 mm 0.00 in0.0 mm 0.46 in11.7 mm
09:55 PM 48.4°F9.1°C 45.9°F7.7°C 91% 3.3 mph SW5.3 kmh SW 9.0 mph14.5 kmh 29.66 in1004.4 mb 0.00 in0.0 mm 0.00 in0.0 mm 0.46 in11.7 mm
10:00 PM 48.4°F9.1°C 45.9°F7.7°C 91% 3.3 mph SW5.3 kmh SW 7.0 mph11.3 kmh 29.66 in1004.4 mb 0.00 in0.0 mm 0.00 in0.0 mm 0.46 in11.7 mm
10:05 PM 48.4°F9.1°C 45.9°F7.7°C 91% 2.6 mph SW4.2 kmh SW 7.0 mph11.3 kmh 29.66 in1004.4 mb 0.00 in0.0 mm 0.00 in0.0 mm 0.46 in11.7 mm
10:10 PM 48.4°F9.1°C 45.9°F7.7°C 91% 2.4 mph SW3.9 kmh SW 7.0 mph11.3 kmh 29.66 in1004.4 mb 0.00 in0.0 mm 0.00 in0.0 mm 0.46 in11.7 mm
10:15 PM 48.3°F9.1°C 45.8°F7.7°C 91% 2.5 mph SW4.0 kmh SW 7.0 mph11.3 kmh 29.66 in1004.4 mb 0.00 in0.0 mm 0.00 in0.0 mm 0.46 in11.7 mm
10:20 PM 48.3°F9.1°C 45.8°F7.7°C 91% 2.7 mph SW4.3 kmh SW 7.0 mph11.3 kmh 29.66 in1004.4 mb 0.00 in0.0 mm 0.00 in0.0 mm 0.46 in11.7 mm
10:25 PM 48.3°F9.1°C 45.8°F7.7°C 91% 3.1 mph SSW5.0 kmh SSW 11.0 mph17.7 kmh 29.67 in1004.7 mb 0.00 in0.0 mm 0.00 in0.0 mm 0.46 in11.7 mm
10:30 PM 48.3°F9.1°C 45.8°F7.7°C 91% 3.6 mph SSW5.8 kmh SSW 11.0 mph17.7 kmh 29.67 in1004.7 mb 0.00 in0.0 mm 0.00 in0.0 mm 0.46 in11.7 mm
10:35 PM 48.3°F9.1°C 45.8°F7.7°C 91% 3.9 mph SW6.3 kmh SW 9.0 mph14.5 kmh 29.67 in1004.7 mb 0.00 in0.0 mm 0.00 in0.0 mm 0.46 in11.7 mm
10:40 PM 48.2°F9.0°C 45.7°F7.6°C 91% 3.4 mph SW5.5 kmh SW 6.0 mph9.7 kmh 29.66 in1004.4 mb 0.00 in0.0 mm 0.00 in0.0 mm 0.46 in11.7 mm
10:45 PM 48.2°F9.0°C 46.0°F7.8°C 92% 2.6 mph SW4.2 kmh SW 6.0 mph9.7 kmh 29.66 in1004.4 mb 0.00 in0.0 mm 0.00 in0.0 mm 0.46 in11.7 mm
10:50 PM 48.2°F9.0°C 46.0°F7.8°C 92% 2.0 mph SW3.2 kmh SW 6.0 mph9.7 kmh 29.66 in1004.4 mb 0.00 in0.0 mm 0.00 in0.0 mm 0.46 in11.7 mm
10:55 PM 48.1°F8.9°C 45.9°F7.7°C 92% 1.3 mph SW2.1 kmh SW 5.0 mph8.0 kmh 29.66 in1004.4 mb 0.00 in0.0 mm 0.00 in0.0 mm 0.46 in11.7 mm
11:00 PM 48.1°F8.9°C 45.9°F7.7°C 92% 0.9 mph WSW1.4 kmh WSW 3.0 mph4.8 kmh 29.66 in1004.4 mb 0.00 in0.0 mm 0.00 in0.0 mm 0.46 in11.7 mm
11:05 PM 48.2°F9.0°C 46.0°F7.8°C 92% 0.8 mph SW1.3 kmh SW 5.0 mph8.0 kmh 29.66 in1004.4 mb 0.00 in0.0 mm 0.00 in0.0 mm 0.46 in11.7 mm
11:10 PM 48.2°F9.0°C 46.0°F7.8°C 92% 1.3 mph SW2.1 kmh SW 5.0 mph8.0 kmh 29.66 in1004.4 mb 0.00 in0.0 mm 0.00 in0.0 mm 0.46 in11.7 mm
11:15 PM 48.3°F9.1°C 46.1°F7.8°C 92% 1.6 mph SW2.6 kmh SW 6.0 mph9.7 kmh 29.67 in1004.7 mb 0.00 in0.0 mm 0.00 in0.0 mm 0.46 in11.7 mm
11:20 PM 48.3°F9.1°C 46.1°F7.8°C 92% 1.6 mph SW2.6 kmh SW 6.0 mph9.7 kmh 29.67 in1004.7 mb 0.00 in0.0 mm 0.00 in0.0 mm 0.46 in11.7 mm
11:25 PM 48.3°F9.1°C 46.1°F7.8°C 92% 2.1 mph SW3.4 kmh SW 6.0 mph9.7 kmh 29.67 in1004.7 mb 0.00 in0.0 mm 0.00 in0.0 mm 0.46 in11.7 mm
11:30 PM 48.2°F9.0°C 46.0°F7.8°C 92% 2.7 mph SW4.3 kmh SW 6.0 mph9.7 kmh 29.67 in1004.7 mb 0.00 in0.0 mm 0.00 in0.0 mm 0.46 in11.7 mm
11:35 PM 48.2°F9.0°C 46.3°F7.9°C 93% 2.9 mph SW4.7 kmh SW 6.0 mph9.7 kmh 29.67 in1004.7 mb 0.00 in0.0 mm 0.00 in0.0 mm 0.46 in11.7 mm
11:40 PM 48.2°F9.0°C 46.3°F7.9°C 93% 2.4 mph SW3.9 kmh SW 6.0 mph9.7 kmh 29.67 in1004.7 mb 0.00 in0.0 mm 0.00 in0.0 mm 0.46 in11.7 mm
11:45 PM 48.2°F9.0°C 46.3°F7.9°C 93% 2.3 mph SW3.7 kmh SW 8.0 mph12.9 kmh 29.67 in1004.7 mb 0.00 in0.0 mm 0.00 in0.0 mm 0.46 in11.7 mm
11:50 PM 48.2°F9.0°C 46.3°F7.9°C 93% 3.0 mph SW4.8 kmh SW 8.0 mph12.9 kmh 29.67 in1004.7 mb 0.00 in0.0 mm 0.00 in0.0 mm 0.46 in11.7 mm
11:55 PM 48.2°F9.0°C 46.3°F7.9°C 93% 3.2 mph SW5.1 kmh SW 8.0 mph12.9 kmh 29.67 in1004.7 mb 0.00 in0.0 mm 0.00 in0.0 mm 0.46 in11.7 mm